sensor_id;sensor_type;location;lat;lon;timestamp;temperature;humidity
11764;DHT22;5939;56.522;14.950;2023-04-15T00:00:27;9.90;99.90
11764;DHT22;5939;56.522;14.950;2023-04-15T00:02:53;9.90;99.90
11764;DHT22;5939;56.522;14.950;2023-04-15T00:05:19;9.90;99.90
11764;DHT22;5939;56.522;14.950;2023-04-15T00:07:45;9.80;99.90
11764;DHT22;5939;56.522;14.950;2023-04-15T00:10:12;9.90;99.90
11764;DHT22;5939;56.522;14.950;2023-04-15T00:12:39;9.90;99.90
11764;DHT22;5939;56.522;14.950;2023-04-15T00:15:06;9.90;99.90
11764;DHT22;5939;56.522;14.950;2023-04-15T00:17:32;9.90;99.90
11764;DHT22;5939;56.522;14.950;2023-04-15T00:19:58;9.90;99.90
11764;DHT22;5939;56.522;14.950;2023-04-15T00:22:25;9.90;99.90
11764;DHT22;5939;56.522;14.950;2023-04-15T00:24:52;9.90;99.90
11764;DHT22;5939;56.522;14.950;2023-04-15T00:27:18;9.90;99.90
11764;DHT22;5939;56.522;14.950;2023-04-15T00:29:44;9.90;99.90
11764;DHT22;5939;56.522;14.950;2023-04-15T00:32:10;9.90;99.90
11764;DHT22;5939;56.522;14.950;2023-04-15T00:34:36;9.90;99.90
11764;DHT22;5939;56.522;14.950;2023-04-15T00:37:01;9.90;99.90
11764;DHT22;5939;56.522;14.950;2023-04-15T00:39:27;9.90;99.90
11764;DHT22;5939;56.522;14.950;2023-04-15T00:41:54;9.90;99.90
11764;DHT22;5939;56.522;14.950;2023-04-15T00:44:20;9.90;99.90
11764;DHT22;5939;56.522;14.950;2023-04-15T00:46:46;9.90;99.90
11764;DHT22;5939;56.522;14.950;2023-04-15T00:49:13;9.90;99.90
11764;DHT22;5939;56.522;14.950;2023-04-15T00:51:38;9.80;99.90
11764;DHT22;5939;56.522;14.950;2023-04-15T00:54:05;9.80;99.90
11764;DHT22;5939;56.522;14.950;2023-04-15T00:56:36;9.80;99.90
11764;DHT22;5939;56.522;14.950;2023-04-15T00:59:05;9.80;99.90
11764;DHT22;5939;56.522;14.950;2023-04-15T01:01:36;9.80;99.90
11764;DHT22;5939;56.522;14.950;2023-04-15T01:04:02;9.80;99.90
11764;DHT22;5939;56.522;14.950;2023-04-15T01:06:29;9.80;99.90
11764;DHT22;5939;56.522;14.950;2023-04-15T01:08:56;9.80;99.90
11764;DHT22;5939;56.522;14.950;2023-04-15T01:11:22;9.80;99.90
11764;DHT22;5939;56.522;14.950;2023-04-15T01:13:49;9.80;99.90
11764;DHT22;5939;56.522;14.950;2023-04-15T01:16:16;9.80;99.90
11764;DHT22;5939;56.522;14.950;2023-04-15T01:18:42;9.80;99.90
11764;DHT22;5939;56.522;14.950;2023-04-15T01:21:08;9.80;99.90
11764;DHT22;5939;56.522;14.950;2023-04-15T01:23:36;9.80;99.90
11764;DHT22;5939;56.522;14.950;2023-04-15T01:26:08;9.70;99.90
11764;DHT22;5939;56.522;14.950;2023-04-15T01:28:35;9.70;99.90
11764;DHT22;5939;56.522;14.950;2023-04-15T01:31:07;9.70;99.90
11764;DHT22;5939;56.522;14.950;2023-04-15T01:33:33;9.70;99.90
11764;DHT22;5939;56.522;14.950;2023-04-15T01:35:59;9.70;99.90
11764;DHT22;5939;56.522;14.950;2023-04-15T01:38:26;9.70;99.90
11764;DHT22;5939;56.522;14.950;2023-04-15T01:40:52;9.80;99.90
11764;DHT22;5939;56.522;14.950;2023-04-15T01:43:18;9.70;99.90
11764;DHT22;5939;56.522;14.950;2023-04-15T01:45:44;9.80;99.90
11764;DHT22;5939;56.522;14.950;2023-04-15T01:48:10;9.70;99.90
11764;DHT22;5939;56.522;14.950;2023-04-15T01:50:36;9.70;99.90
11764;DHT22;5939;56.522;14.950;2023-04-15T01:53:02;9.70;99.90
11764;DHT22;5939;56.522;14.950;2023-04-15T01:55:28;9.70;99.90
11764;DHT22;5939;56.522;14.950;2023-04-15T01:57:54;9.70;99.90
11764;DHT22;5939;56.522;14.950;2023-04-15T02:00:20;9.70;99.90
11764;DHT22;5939;56.522;14.950;2023-04-15T02:02:47;9.70;99.90
11764;DHT22;5939;56.522;14.950;2023-04-15T02:05:13;9.70;99.90
11764;DHT22;5939;56.522;14.950;2023-04-15T02:07:39;9.70;99.90
11764;DHT22;5939;56.522;14.950;2023-04-15T02:10:05;9.60;99.90
11764;DHT22;5939;56.522;14.950;2023-04-15T02:12:30;9.70;99.90
11764;DHT22;5939;56.522;14.950;2023-04-15T02:14:56;9.70;99.90
11764;DHT22;5939;56.522;14.950;2023-04-15T02:17:22;9.60;99.90
11764;DHT22;5939;56.522;14.950;2023-04-15T02:19:47;9.70;99.90
11764;DHT22;5939;56.522;14.950;2023-04-15T02:22:13;9.60;99.90
11764;DHT22;5939;56.522;14.950;2023-04-15T02:24:43;9.60;99.90
11764;DHT22;5939;56.522;14.950;2023-04-15T02:27:09;9.70;99.90
11764;DHT22;5939;56.522;14.950;2023-04-15T02:29:34;9.60;99.90
11764;DHT22;5939;56.522;14.950;2023-04-15T02:32:00;9.70;99.90
11764;DHT22;5939;56.522;14.950;2023-04-15T02:34:26;9.60;99.90
11764;DHT22;5939;56.522;14.950;2023-04-15T02:36:51;9.60;99.90
11764;DHT22;5939;56.522;14.950;2023-04-15T02:39:21;9.60;99.90
11764;DHT22;5939;56.522;14.950;2023-04-15T02:41:48;9.60;99.90
11764;DHT22;5939;56.522;14.950;2023-04-15T02:44:17;9.60;99.90
11764;DHT22;5939;56.522;14.950;2023-04-15T02:46:46;9.60;99.90
11764;DHT22;5939;56.522;14.950;2023-04-15T02:49:17;9.60;99.90
11764;DHT22;5939;56.522;14.950;2023-04-15T02:51:43;9.60;99.90
11764;DHT22;5939;56.522;14.950;2023-04-15T02:54:14;9.60;99.90
11764;DHT22;5939;56.522;14.950;2023-04-15T02:56:40;9.60;99.90
11764;DHT22;5939;56.522;14.950;2023-04-15T02:59:05;9.60;99.90
11764;DHT22;5939;56.522;14.950;2023-04-15T03:01:31;9.60;99.90
11764;DHT22;5939;56.522;14.950;2023-04-15T03:03:57;9.60;99.90
11764;DHT22;5939;56.522;14.950;2023-04-15T03:06:22;9.60;99.90
11764;DHT22;5939;56.522;14.950;2023-04-15T03:08:49;9.60;99.90
11764;DHT22;5939;56.522;14.950;2023-04-15T03:11:15;9.50;99.90
11764;DHT22;5939;56.522;14.950;2023-04-15T03:13:41;9.60;99.90
11764;DHT22;5939;56.522;14.950;2023-04-15T03:16:08;9.60;99.90
11764;DHT22;5939;56.522;14.950;2023-04-15T03:18:34;9.60;99.90
11764;DHT22;5939;56.522;14.950;2023-04-15T03:21:00;9.60;99.90
11764;DHT22;5939;56.522;14.950;2023-04-15T03:23:25;9.60;99.90
11764;DHT22;5939;56.522;14.950;2023-04-15T03:25:51;9.60;99.90
11764;DHT22;5939;56.522;14.950;2023-04-15T03:28:20;9.50;99.90
11764;DHT22;5939;56.522;14.950;2023-04-15T03:30:45;9.50;99.90
11764;DHT22;5939;56.522;14.950;2023-04-15T03:33:11;9.50;99.90
11764;DHT22;5939;56.522;14.950;2023-04-15T03:35:37;9.50;99.90
11764;DHT22;5939;56.522;14.950;2023-04-15T03:38:02;9.50;99.90
11764;DHT22;5939;56.522;14.950;2023-04-15T03:40:28;9.50;99.90
11764;DHT22;5939;56.522;14.950;2023-04-15T03:42:54;9.50;99.90
11764;DHT22;5939;56.522;14.950;2023-04-15T03:45:20;9.50;99.90
11764;DHT22;5939;56.522;14.950;2023-04-15T03:47:46;9.50;99.90
11764;DHT22;5939;56.522;14.950;2023-04-15T03:50:14;9.50;99.90
11764;DHT22;5939;56.522;14.950;2023-04-15T03:52:40;9.50;99.90
11764;DHT22;5939;56.522;14.950;2023-04-15T03:55:06;9.50;99.90
11764;DHT22;5939;56.522;14.950;2023-04-15T03:57:33;9.50;99.90
11764;DHT22;5939;56.522;14.950;2023-04-15T04:00:03;9.50;99.90
11764;DHT22;5939;56.522;14.950;2023-04-15T04:02:29;9.50;99.90
11764;DHT22;5939;56.522;14.950;2023-04-15T04:04:54;9.50;99.90
11764;DHT22;5939;56.522;14.950;2023-04-15T04:07:22;9.50;99.90
11764;DHT22;5939;56.522;14.950;2023-04-15T04:09:48;9.50;99.90
11764;DHT22;5939;56.522;14.950;2023-04-15T04:12:14;9.50;99.90
11764;DHT22;5939;56.522;14.950;2023-04-15T04:14:40;9.50;99.90
11764;DHT22;5939;56.522;14.950;2023-04-15T04:17:05;9.40;99.90
11764;DHT22;5939;56.522;14.950;2023-04-15T04:19:31;9.40;99.90
11764;DHT22;5939;56.522;14.950;2023-04-15T04:21:57;9.40;99.90
11764;DHT22;5939;56.522;14.950;2023-04-15T04:24:22;9.50;99.90
11764;DHT22;5939;56.522;14.950;2023-04-15T04:26:48;9.40;99.90
11764;DHT22;5939;56.522;14.950;2023-04-15T04:29:14;9.40;99.90
11764;DHT22;5939;56.522;14.950;2023-04-15T04:31:40;9.40;99.90
11764;DHT22;5939;56.522;14.950;2023-04-15T04:34:05;9.40;99.90
11764;DHT22;5939;56.522;14.950;2023-04-15T04:36:31;9.40;99.90
11764;DHT22;5939;56.522;14.950;2023-04-15T04:38:57;9.40;99.90
11764;DHT22;5939;56.522;14.950;2023-04-15T04:41:22;9.40;99.90
11764;DHT22;5939;56.522;14.950;2023-04-15T04:43:48;9.50;99.90
11764;DHT22;5939;56.522;14.950;2023-04-15T04:46:13;9.50;99.90
11764;DHT22;5939;56.522;14.950;2023-04-15T04:48:39;9.40;99.90
11764;DHT22;5939;56.522;14.950;2023-04-15T04:51:05;9.40;99.90
11764;DHT22;5939;56.522;14.950;2023-04-15T04:53:32;9.40;99.90
11764;DHT22;5939;56.522;14.950;2023-04-15T04:55:57;9.40;99.90
11764;DHT22;5939;56.522;14.950;2023-04-15T04:58:23;9.40;99.90
11764;DHT22;5939;56.522;14.950;2023-04-15T05:00:49;9.30;99.90
11764;DHT22;5939;56.522;14.950;2023-04-15T05:03:14;9.30;99.90
11764;DHT22;5939;56.522;14.950;2023-04-15T05:05:40;9.30;99.90
11764;DHT22;5939;56.522;14.950;2023-04-15T05:08:06;9.30;99.90
11764;DHT22;5939;56.522;14.950;2023-04-15T05:10:32;9.40;99.90
11764;DHT22;5939;56.522;14.950;2023-04-15T05:12:57;9.40;99.90
11764;DHT22;5939;56.522;14.950;2023-04-15T05:15:23;9.30;99.90
11764;DHT22;5939;56.522;14.950;2023-04-15T05:17:49;9.30;99.90
11764;DHT22;5939;56.522;14.950;2023-04-15T05:20:16;9.30;99.90
11764;DHT22;5939;56.522;14.950;2023-04-15T05:22:41;9.30;99.90
11764;DHT22;5939;56.522;14.950;2023-04-15T05:25:07;9.30;99.90
11764;DHT22;5939;56.522;14.950;2023-04-15T05:27:33;9.40;99.90
11764;DHT22;5939;56.522;14.950;2023-04-15T05:29:59;9.30;99.90
11764;DHT22;5939;56.522;14.950;2023-04-15T05:32:24;9.40;99.90
11764;DHT22;5939;56.522;14.950;2023-04-15T05:34:50;9.40;99.90
11764;DHT22;5939;56.522;14.950;2023-04-15T05:37:16;9.40;99.90
11764;DHT22;5939;56.522;14.950;2023-04-15T05:39:45;9.40;99.90
11764;DHT22;5939;56.522;14.950;2023-04-15T05:42:11;9.40;99.90
11764;DHT22;5939;56.522;14.950;2023-04-15T05:44:36;9.50;99.90
11764;DHT22;5939;56.522;14.950;2023-04-15T05:47:02;9.50;99.90
11764;DHT22;5939;56.522;14.950;2023-04-15T05:49:28;9.50;99.90
11764;DHT22;5939;56.522;14.950;2023-04-15T05:51:54;9.60;99.90
11764;DHT22;5939;56.522;14.950;2023-04-15T05:54:19;9.60;99.90
11764;DHT22;5939;56.522;14.950;2023-04-15T05:56:48;9.60;99.90
11764;DHT22;5939;56.522;14.950;2023-04-15T05:59:13;9.70;99.90
11764;DHT22;5939;56.522;14.950;2023-04-15T06:01:39;9.70;99.90
11764;DHT22;5939;56.522;14.950;2023-04-15T06:04:05;9.80;99.90
11764;DHT22;5939;56.522;14.950;2023-04-15T06:06:31;9.90;99.90
11764;DHT22;5939;56.522;14.950;2023-04-15T06:08:57;9.80;99.90
11764;DHT22;5939;56.522;14.950;2023-04-15T06:11:23;10.00;99.90
11764;DHT22;5939;56.522;14.950;2023-04-15T06:13:48;10.00;99.90
11764;DHT22;5939;56.522;14.950;2023-04-15T06:16:15;10.10;99.90
11764;DHT22;5939;56.522;14.950;2023-04-15T06:18:41;10.10;99.90
11764;DHT22;5939;56.522;14.950;2023-04-15T06:21:06;10.20;99.90
11764;DHT22;5939;56.522;14.950;2023-04-15T06:23:35;10.20;99.90
11764;DHT22;5939;56.522;14.950;2023-04-15T06:26:01;10.30;99.90
11764;DHT22;5939;56.522;14.950;2023-04-15T06:28:26;10.40;99.90
11764;DHT22;5939;56.522;14.950;2023-04-15T06:30:53;10.40;99.90
11764;DHT22;5939;56.522;14.950;2023-04-15T06:33:19;10.50;99.90
11764;DHT22;5939;56.522;14.950;2023-04-15T06:35:45;10.50;99.90
11764;DHT22;5939;56.522;14.950;2023-04-15T06:38:11;10.60;99.90
11764;DHT22;5939;56.522;14.950;2023-04-15T06:40:37;10.70;99.90
11764;DHT22;5939;56.522;14.950;2023-04-15T06:43:03;10.80;99.90
11764;DHT22;5939;56.522;14.950;2023-04-15T06:45:29;10.80;99.90
11764;DHT22;5939;56.522;14.950;2023-04-15T06:47:55;10.90;99.90
11764;DHT22;5939;56.522;14.950;2023-04-15T06:50:21;10.90;99.90
11764;DHT22;5939;56.522;14.950;2023-04-15T06:52:47;11.00;99.90
11764;DHT22;5939;56.522;14.950;2023-04-15T06:55:12;11.10;99.90
11764;DHT22;5939;56.522;14.950;2023-04-15T06:57:39;11.20;99.90
11764;DHT22;5939;56.522;14.950;2023-04-15T07:00:07;11.20;99.90
11764;DHT22;5939;56.522;14.950;2023-04-15T07:02:35;11.30;99.90
11764;DHT22;5939;56.522;14.950;2023-04-15T07:05:01;11.40;99.90
11764;DHT22;5939;56.522;14.950;2023-04-15T07:07:27;11.40;99.90
11764;DHT22;5939;56.522;14.950;2023-04-15T07:09:52;11.50;99.90
11764;DHT22;5939;56.522;14.950;2023-04-15T07:12:18;11.60;99.90
11764;DHT22;5939;56.522;14.950;2023-04-15T07:14:44;11.60;99.90
11764;DHT22;5939;56.522;14.950;2023-04-15T07:17:10;11.70;99.90
11764;DHT22;5939;56.522;14.950;2023-04-15T07:19:36;11.80;99.90
11764;DHT22;5939;56.522;14.950;2023-04-15T07:22:02;11.80;99.90
11764;DHT22;5939;56.522;14.950;2023-04-15T07:24:28;11.90;99.90
11764;DHT22;5939;56.522;14.950;2023-04-15T07:26:54;12.00;99.90
11764;DHT22;5939;56.522;14.950;2023-04-15T07:29:24;12.00;99.90
11764;DHT22;5939;56.522;14.950;2023-04-15T07:31:49;12.10;99.90
11764;DHT22;5939;56.522;14.950;2023-04-15T07:34:15;12.20;99.90
11764;DHT22;5939;56.522;14.950;2023-04-15T07:36:41;12.30;99.90
11764;DHT22;5939;56.522;14.950;2023-04-15T07:39:07;12.30;99.90
11764;DHT22;5939;56.522;14.950;2023-04-15T07:41:33;12.40;99.90
11764;DHT22;5939;56.522;14.950;2023-04-15T07:43:59;12.50;99.90
11764;DHT22;5939;56.522;14.950;2023-04-15T07:46:25;12.50;99.90
11764;DHT22;5939;56.522;14.950;2023-04-15T07:48:52;12.60;99.90
11764;DHT22;5939;56.522;14.950;2023-04-15T07:51:19;12.70;99.90
11764;DHT22;5939;56.522;14.950;2023-04-15T07:53:46;12.70;99.90
11764;DHT22;5939;56.522;14.950;2023-04-15T07:56:12;12.80;99.90
11764;DHT22;5939;56.522;14.950;2023-04-15T07:58:37;12.80;99.90
11764;DHT22;5939;56.522;14.950;2023-04-15T08:01:03;12.90;99.90
11764;DHT22;5939;56.522;14.950;2023-04-15T08:03:29;13.00;99.90
11764;DHT22;5939;56.522;14.950;2023-04-15T08:05:55;13.00;99.90
11764;DHT22;5939;56.522;14.950;2023-04-15T08:08:21;13.10;99.90
11764;DHT22;5939;56.522;14.950;2023-04-15T08:10:47;13.10;99.90
11764;DHT22;5939;56.522;14.950;2023-04-15T08:13:13;13.10;99.90
11764;DHT22;5939;56.522;14.950;2023-04-15T08:15:38;13.20;99.90
11764;DHT22;5939;56.522;14.950;2023-04-15T08:18:04;13.20;99.90
11764;DHT22;5939;56.522;14.950;2023-04-15T08:20:30;13.20;99.90
11764;DHT22;5939;56.522;14.950;2023-04-15T08:22:55;13.20;99.90
11764;DHT22;5939;56.522;14.950;2023-04-15T08:25:21;13.20;99.90
11764;DHT22;5939;56.522;14.950;2023-04-15T08:27:47;13.30;99.90
11764;DHT22;5939;56.522;14.950;2023-04-15T08:30:13;13.30;99.90
11764;DHT22;5939;56.522;14.950;2023-04-15T08:32:40;13.30;99.90
11764;DHT22;5939;56.522;14.950;2023-04-15T08:35:06;13.30;99.90
11764;DHT22;5939;56.522;14.950;2023-04-15T08:37:32;13.30;99.90
11764;DHT22;5939;56.522;14.950;2023-04-15T08:39:57;13.30;99.90
11764;DHT22;5939;56.522;14.950;2023-04-15T08:42:29;13.30;99.90
11764;DHT22;5939;56.522;14.950;2023-04-15T08:44:58;13.40;99.90
11764;DHT22;5939;56.522;14.950;2023-04-15T08:47:25;13.40;99.90
11764;DHT22;5939;56.522;14.950;2023-04-15T08:49:54;13.40;99.90
11764;DHT22;5939;56.522;14.950;2023-04-15T08:52:24;13.50;99.90
11764;DHT22;5939;56.522;14.950;2023-04-15T08:54:54;13.50;99.90
11764;DHT22;5939;56.522;14.950;2023-04-15T08:57:25;13.50;99.90
11764;DHT22;5939;56.522;14.950;2023-04-15T08:59:54;13.50;99.90
11764;DHT22;5939;56.522;14.950;2023-04-15T09:02:20;13.60;99.90
11764;DHT22;5939;56.522;14.950;2023-04-15T09:04:46;13.60;99.90
11764;DHT22;5939;56.522;14.950;2023-04-15T09:07:12;13.70;99.90
11764;DHT22;5939;56.522;14.950;2023-04-15T09:09:37;13.70;99.90
11764;DHT22;5939;56.522;14.950;2023-04-15T09:12:04;13.80;99.90
11764;DHT22;5939;56.522;14.950;2023-04-15T09:14:30;13.90;99.90
11764;DHT22;5939;56.522;14.950;2023-04-15T09:17:03;13.90;99.90
11764;DHT22;5939;56.522;14.950;2023-04-15T09:19:30;14.00;99.90
11764;DHT22;5939;56.522;14.950;2023-04-15T09:21:58;14.10;99.90
11764;DHT22;5939;56.522;14.950;2023-04-15T09:24:24;14.10;99.90
11764;DHT22;5939;56.522;14.950;2023-04-15T09:26:52;14.20;99.90
11764;DHT22;5939;56.522;14.950;2023-04-15T09:29:19;14.30;99.90
11764;DHT22;5939;56.522;14.950;2023-04-15T09:31:44;14.30;99.90
11764;DHT22;5939;56.522;14.950;2023-04-15T09:34:10;14.40;99.90
11764;DHT22;5939;56.522;14.950;2023-04-15T09:36:53;14.40;99.90
11764;DHT22;5939;56.522;14.950;2023-04-15T09:39:19;14.50;99.90
11764;DHT22;5939;56.522;14.950;2023-04-15T09:41:45;14.50;99.90
11764;DHT22;5939;56.522;14.950;2023-04-15T09:44:24;14.50;99.90
11764;DHT22;5939;56.522;14.950;2023-04-15T09:46:50;14.50;99.90
11764;DHT22;5939;56.522;14.950;2023-04-15T09:49:16;14.50;99.90
11764;DHT22;5939;56.522;14.950;2023-04-15T09:51:42;14.50;99.90
11764;DHT22;5939;56.522;14.950;2023-04-15T09:54:08;14.40;99.90
11764;DHT22;5939;56.522;14.950;2023-04-15T09:56:35;14.40;99.90
11764;DHT22;5939;56.522;14.950;2023-04-15T09:59:07;14.30;99.90
11764;DHT22;5939;56.522;14.950;2023-04-15T10:01:33;14.30;99.90
11764;DHT22;5939;56.522;14.950;2023-04-15T10:04:02;14.30;99.90
11764;DHT22;5939;56.522;14.950;2023-04-15T10:06:29;14.30;99.90
11764;DHT22;5939;56.522;14.950;2023-04-15T10:08:56;14.20;99.90
11764;DHT22;5939;56.522;14.950;2023-04-15T10:11:23;14.20;99.90
11764;DHT22;5939;56.522;14.950;2023-04-15T10:13:50;14.20;99.90
11764;DHT22;5939;56.522;14.950;2023-04-15T10:16:19;14.10;99.90
11764;DHT22;5939;56.522;14.950;2023-04-15T10:18:49;14.10;99.90
11764;DHT22;5939;56.522;14.950;2023-04-15T10:21:16;14.10;99.90
11764;DHT22;5939;56.522;14.950;2023-04-15T10:23:46;14.10;99.90
11764;DHT22;5939;56.522;14.950;2023-04-15T10:26:13;14.00;99.90
11764;DHT22;5939;56.522;14.950;2023-04-15T10:28:40;14.00;99.90
11764;DHT22;5939;56.522;14.950;2023-04-15T10:31:06;13.90;99.90
11764;DHT22;5939;56.522;14.950;2023-04-15T10:33:32;13.90;99.90
11764;DHT22;5939;56.522;14.950;2023-04-15T10:36:00;13.90;99.90
11764;DHT22;5939;56.522;14.950;2023-04-15T10:38:37;13.80;99.90
11764;DHT22;5939;56.522;14.950;2023-04-15T10:51:32;13.80;99.90
11764;DHT22;5939;56.522;14.950;2023-04-15T10:53:58;13.70;99.90
11764;DHT22;5939;56.522;14.950;2023-04-15T10:56:24;13.70;99.90
11764;DHT22;5939;56.522;14.950;2023-04-15T10:58:50;13.70;99.90
11764;DHT22;5939;56.522;14.950;2023-04-15T11:01:19;13.70;99.90
11764;DHT22;5939;56.522;14.950;2023-04-15T11:03:45;13.60;99.90
11764;DHT22;5939;56.522;14.950;2023-04-15T11:06:11;13.60;99.90
11764;DHT22;5939;56.522;14.950;2023-04-15T11:08:53;13.60;99.90
11764;DHT22;5939;56.522;14.950;2023-04-15T11:11:20;13.60;99.90
11764;DHT22;5939;56.522;14.950;2023-04-15T11:13:51;13.60;99.90
11764;DHT22;5939;56.522;14.950;2023-04-15T11:16:18;13.60;99.90
11764;DHT22;5939;56.522;14.950;2023-04-15T11:18:53;13.60;99.90
11764;DHT22;5939;56.522;14.950;2023-04-15T11:21:23;13.60;99.90
11764;DHT22;5939;56.522;14.950;2023-04-15T11:23:50;13.60;99.90
11764;DHT22;5939;56.522;14.950;2023-04-15T11:26:16;13.60;99.90
11764;DHT22;5939;56.522;14.950;2023-04-15T11:28:43;13.60;99.90
11764;DHT22;5939;56.522;14.950;2023-04-15T11:31:13;13.50;99.90
11764;DHT22;5939;56.522;14.950;2023-04-15T11:33:58;13.50;99.90
11764;DHT22;5939;56.522;14.950;2023-04-15T11:36:27;13.50;99.90
11764;DHT22;5939;56.522;14.950;2023-04-15T11:38:52;13.50;99.90
11764;DHT22;5939;56.522;14.950;2023-04-15T11:41:22;13.50;99.90
11764;DHT22;5939;56.522;14.950;2023-04-15T11:43:51;13.50;99.90
11764;DHT22;5939;56.522;14.950;2023-04-15T11:46:18;13.50;99.90
11764;DHT22;5939;56.522;14.950;2023-04-15T11:48:45;13.50;99.90
11764;DHT22;5939;56.522;14.950;2023-04-15T11:51:13;13.60;99.90
11764;DHT22;5939;56.522;14.950;2023-04-15T11:56:10;13.60;99.90
11764;DHT22;5939;56.522;14.950;2023-04-15T11:58:37;13.60;99.90
11764;DHT22;5939;56.522;14.950;2023-04-15T12:01:03;13.60;99.90
11764;DHT22;5939;56.522;14.950;2023-04-15T12:03:35;13.60;99.90
11764;DHT22;5939;56.522;14.950;2023-04-15T12:06:17;13.60;99.90
11764;DHT22;5939;56.522;14.950;2023-04-15T12:11:33;13.60;99.90
11764;DHT22;5939;56.522;14.950;2023-04-15T12:16:26;13.60;99.90
11764;DHT22;5939;56.522;14.950;2023-04-15T12:18:53;13.60;99.90
11764;DHT22;5939;56.522;14.950;2023-04-15T12:21:25;13.60;99.90
11764;DHT22;5939;56.522;14.950;2023-04-15T12:23:55;13.60;99.90
11764;DHT22;5939;56.522;14.950;2023-04-15T12:26:29;13.60;99.90
11764;DHT22;5939;56.522;14.950;2023-04-15T12:29:09;13.60;99.90
11764;DHT22;5939;56.522;14.950;2023-04-15T12:31:35;13.60;99.90
11764;DHT22;5939;56.522;14.950;2023-04-15T12:34:02;13.60;99.90
11764;DHT22;5939;56.522;14.950;2023-04-15T12:36:29;13.60;99.90
11764;DHT22;5939;56.522;14.950;2023-04-15T12:39:01;13.60;99.90
11764;DHT22;5939;56.522;14.950;2023-04-15T12:41:27;13.60;99.90
11764;DHT22;5939;56.522;14.950;2023-04-15T12:43:53;13.60;99.90
11764;DHT22;5939;56.522;14.950;2023-04-15T12:46:18;13.60;99.90
11764;DHT22;5939;56.522;14.950;2023-04-15T12:48:44;13.60;99.90
11764;DHT22;5939;56.522;14.950;2023-04-15T12:51:10;13.60;99.90
11764;DHT22;5939;56.522;14.950;2023-04-15T12:53:36;13.60;99.90
11764;DHT22;5939;56.522;14.950;2023-04-15T12:56:02;13.50;99.90
11764;DHT22;5939;56.522;14.950;2023-04-15T12:58:27;13.60;99.90
11764;DHT22;5939;56.522;14.950;2023-04-15T13:00:53;13.60;99.90
11764;DHT22;5939;56.522;14.950;2023-04-15T13:03:19;13.50;99.90
11764;DHT22;5939;56.522;14.950;2023-04-15T13:05:44;13.60;99.90
11764;DHT22;5939;56.522;14.950;2023-04-15T13:08:10;13.50;99.90
11764;DHT22;5939;56.522;14.950;2023-04-15T13:10:36;13.60;99.90
11764;DHT22;5939;56.522;14.950;2023-04-15T13:13:04;13.50;99.90
11764;DHT22;5939;56.522;14.950;2023-04-15T13:15:30;13.50;99.90
11764;DHT22;5939;56.522;14.950;2023-04-15T13:17:56;13.50;99.90
11764;DHT22;5939;56.522;14.950;2023-04-15T13:20:22;13.50;99.90
11764;DHT22;5939;56.522;14.950;2023-04-15T13:22:47;13.50;99.90
11764;DHT22;5939;56.522;14.950;2023-04-15T13:25:13;13.50;99.90
11764;DHT22;5939;56.522;14.950;2023-04-15T13:27:39;13.40;99.90
11764;DHT22;5939;56.522;14.950;2023-04-15T13:30:05;13.50;99.90
11764;DHT22;5939;56.522;14.950;2023-04-15T13:32:31;13.40;99.90
11764;DHT22;5939;56.522;14.950;2023-04-15T13:34:57;13.50;99.90
11764;DHT22;5939;56.522;14.950;2023-04-15T13:37:27;13.40;99.90
11764;DHT22;5939;56.522;14.950;2023-04-15T13:39:54;13.40;99.90
11764;DHT22;5939;56.522;14.950;2023-04-15T13:42:21;13.40;99.90
11764;DHT22;5939;56.522;14.950;2023-04-15T13:44:46;13.40;99.90
11764;DHT22;5939;56.522;14.950;2023-04-15T13:47:12;13.40;99.90
11764;DHT22;5939;56.522;14.950;2023-04-15T13:49:39;13.40;99.90
11764;DHT22;5939;56.522;14.950;2023-04-15T13:52:05;13.40;99.90
11764;DHT22;5939;56.522;14.950;2023-04-15T13:54:31;13.40;99.90
11764;DHT22;5939;56.522;14.950;2023-04-15T13:56:56;13.40;99.90
11764;DHT22;5939;56.522;14.950;2023-04-15T13:59:22;13.30;99.90
11764;DHT22;5939;56.522;14.950;2023-04-15T14:01:48;13.30;99.90
11764;DHT22;5939;56.522;14.950;2023-04-15T14:04:14;13.30;99.90
11764;DHT22;5939;56.522;14.950;2023-04-15T14:06:39;13.30;99.90
11764;DHT22;5939;56.522;14.950;2023-04-15T14:09:05;13.30;99.90
11764;DHT22;5939;56.522;14.950;2023-04-15T14:11:31;13.30;99.90
11764;DHT22;5939;56.522;14.950;2023-04-15T14:13:57;13.30;99.90
11764;DHT22;5939;56.522;14.950;2023-04-15T14:16:22;13.20;99.90
11764;DHT22;5939;56.522;14.950;2023-04-15T14:18:48;13.20;99.90
11764;DHT22;5939;56.522;14.950;2023-04-15T14:21:13;13.20;99.90
11764;DHT22;5939;56.522;14.950;2023-04-15T14:23:39;13.20;99.90
11764;DHT22;5939;56.522;14.950;2023-04-15T14:26:05;13.20;99.90
11764;DHT22;5939;56.522;14.950;2023-04-15T14:28:31;13.20;99.90
11764;DHT22;5939;56.522;14.950;2023-04-15T14:30:56;13.10;99.90
11764;DHT22;5939;56.522;14.950;2023-04-15T14:33:22;13.10;99.90
11764;DHT22;5939;56.522;14.950;2023-04-15T14:35:49;13.10;99.90
11764;DHT22;5939;56.522;14.950;2023-04-15T14:38:15;13.10;99.90
11764;DHT22;5939;56.522;14.950;2023-04-15T14:40:41;13.10;99.90
11764;DHT22;5939;56.522;14.950;2023-04-15T14:43:07;13.10;99.90
11764;DHT22;5939;56.522;14.950;2023-04-15T14:45:32;13.10;99.90
11764;DHT22;5939;56.522;14.950;2023-04-15T14:47:59;13.00;99.90
11764;DHT22;5939;56.522;14.950;2023-04-15T14:50:24;13.00;99.90
11764;DHT22;5939;56.522;14.950;2023-04-15T14:52:50;13.00;99.90
11764;DHT22;5939;56.522;14.950;2023-04-15T14:55:16;13.00;99.90
11764;DHT22;5939;56.522;14.950;2023-04-15T14:57:42;13.00;99.90
11764;DHT22;5939;56.522;14.950;2023-04-15T15:00:09;12.90;99.90
11764;DHT22;5939;56.522;14.950;2023-04-15T15:02:37;12.90;99.90
11764;DHT22;5939;56.522;14.950;2023-04-15T15:05:02;12.90;99.90
11764;DHT22;5939;56.522;14.950;2023-04-15T15:07:28;12.90;99.90
11764;DHT22;5939;56.522;14.950;2023-04-15T15:09:54;12.90;99.90
11764;DHT22;5939;56.522;14.950;2023-04-15T15:12:20;12.80;99.90
11764;DHT22;5939;56.522;14.950;2023-04-15T15:14:47;12.80;99.90
11764;DHT22;5939;56.522;14.950;2023-04-15T15:17:13;12.80;99.90
11764;DHT22;5939;56.522;14.950;2023-04-15T15:19:39;12.80;99.90
11764;DHT22;5939;56.522;14.950;2023-04-15T15:22:05;12.80;99.90
11764;DHT22;5939;56.522;14.950;2023-04-15T15:24:31;12.70;99.90
11764;DHT22;5939;56.522;14.950;2023-04-15T15:26:56;12.70;99.90
11764;DHT22;5939;56.522;14.950;2023-04-15T15:29:22;12.70;99.90
11764;DHT22;5939;56.522;14.950;2023-04-15T15:31:48;12.70;99.90
11764;DHT22;5939;56.522;14.950;2023-04-15T15:34:15;12.70;99.90
11764;DHT22;5939;56.522;14.950;2023-04-15T15:36:41;12.60;99.90
11764;DHT22;5939;56.522;14.950;2023-04-15T15:39:06;12.60;99.90
11764;DHT22;5939;56.522;14.950;2023-04-15T15:41:32;12.60;99.90
11764;DHT22;5939;56.522;14.950;2023-04-15T15:43:58;12.60;99.90
11764;DHT22;5939;56.522;14.950;2023-04-15T15:46:25;12.50;99.90
11764;DHT22;5939;56.522;14.950;2023-04-15T15:48:52;12.50;99.90
11764;DHT22;5939;56.522;14.950;2023-04-15T15:51:19;12.50;99.90